createdAt,value
2018-07-07T00:00:39.847Z,20.82
2018-07-07T00:03:09.118Z,20.80
2018-07-07T00:05:38.876Z,20.76
2018-07-07T00:08:08.459Z,20.71
2018-07-07T00:10:38.346Z,20.64
2018-07-07T00:13:08.230Z,20.72
2018-07-07T00:15:37.890Z,20.78
2018-07-07T00:18:07.827Z,20.75
2018-07-07T00:20:37.468Z,20.66
2018-07-07T00:23:07.954Z,20.67
2018-07-07T00:25:38.148Z,20.66
2018-07-07T00:28:07.665Z,20.70
2018-07-07T00:30:37.882Z,20.72
2018-07-07T00:33:08.154Z,20.72
2018-07-07T00:35:38.059Z,20.70
2018-07-07T00:38:08.234Z,20.73
2018-07-07T00:40:38.610Z,20.68
2018-07-07T00:43:08.434Z,20.70
2018-07-07T00:45:38.698Z,20.65
2018-07-07T00:48:08.606Z,20.58
2018-07-07T00:50:38.760Z,20.57
2018-07-07T00:53:08.538Z,20.57
2018-07-07T00:55:38.450Z,20.65
2018-07-07T00:58:09.291Z,20.67
2018-07-07T01:00:52.614Z,20.65
2018-07-07T01:03:23.278Z,20.56
2018-07-07T01:05:52.905Z,20.55
2018-07-07T01:08:22.694Z,20.59
2018-07-07T01:10:53.214Z,20.58
2018-07-07T01:13:23.240Z,20.58
2018-07-07T01:15:52.536Z,20.56
2018-07-07T01:18:22.858Z,20.59
2018-07-07T01:20:52.171Z,20.57
2018-07-07T01:23:22.386Z,20.61
2018-07-07T01:25:52.283Z,20.60
2018-07-07T01:28:21.791Z,20.65
2018-07-07T01:30:51.707Z,20.66
2018-07-07T01:33:21.565Z,20.65
2018-07-07T01:35:52.547Z,20.60
2018-07-07T01:38:21.918Z,20.60
2018-07-07T01:40:51.813Z,20.60
2018-07-07T01:43:21.984Z,20.59
2018-07-07T01:45:51.753Z,20.57
2018-07-07T01:48:21.645Z,20.51
2018-07-07T01:50:51.410Z,20.56
2018-07-07T01:53:21.265Z,20.58
2018-07-07T01:55:51.118Z,20.59
2018-07-07T01:58:21.010Z,20.58
2018-07-07T02:00:51.390Z,20.56
2018-07-07T02:03:21.296Z,20.53
2018-07-07T02:05:51.619Z,20.50
2018-07-07T02:08:21.661Z,20.54
2018-07-07T02:10:51.357Z,20.55
2018-07-07T02:13:21.398Z,20.55
2018-07-07T02:15:51.191Z,20.49
2018-07-07T02:18:20.624Z,20.44
2018-07-07T02:20:50.600Z,20.48
2018-07-07T02:23:20.217Z,20.48
2018-07-07T02:25:49.797Z,20.41
2018-07-07T02:28:19.674Z,20.52
2018-07-07T02:30:49.248Z,20.50
2018-07-07T02:33:19.402Z,20.50
2018-07-07T02:35:49.708Z,20.49
2018-07-07T02:38:19.934Z,20.53
2018-07-07T02:40:49.506Z,20.53
2018-07-07T02:43:18.759Z,20.44
2018-07-07T02:45:48.803Z,20.46
2018-07-07T02:48:18.850Z,20.47
2018-07-07T02:50:48.615Z,20.38
2018-07-07T02:53:18.174Z,20.33
2018-07-07T02:55:48.644Z,20.37
2018-07-07T02:58:18.544Z,20.31
2018-07-07T03:00:48.660Z,20.32
2018-07-07T03:03:18.602Z,20.29
2018-07-07T03:05:49.189Z,20.30
2018-07-07T03:08:18.656Z,20.32
2018-07-07T03:10:48.694Z,20.33
2018-07-07T03:13:18.103Z,20.27
2018-07-07T03:15:48.333Z,20.20
2018-07-07T03:18:17.748Z,20.22
2018-07-07T03:20:47.602Z,20.20
2018-07-07T03:23:17.752Z,20.14
2018-07-07T03:25:47.419Z,20.14
2018-07-07T03:28:17.346Z,20.19
2018-07-07T03:30:46.902Z,20.06
2018-07-07T03:33:16.835Z,20.02
2018-07-07T03:35:46.571Z,19.97
2018-07-07T03:38:16.302Z,19.94
2018-07-07T03:40:45.591Z,19.92
2018-07-07T03:43:14.910Z,19.80
2018-07-07T03:45:44.976Z,19.81
2018-07-07T03:48:15.602Z,19.84
2018-07-07T03:50:46.371Z,19.83
2018-07-07T03:53:16.330Z,19.86
2018-07-07T03:55:46.031Z,19.85
2018-07-07T03:58:15.957Z,19.83
2018-07-07T04:00:45.933Z,19.83
2018-07-07T04:03:15.647Z,19.74
2018-07-07T04:05:45.519Z,19.67
2018-07-07T04:08:15.628Z,19.66
2018-07-07T04:10:45.316Z,19.72
2018-07-07T04:13:14.852Z,19.75
2018-07-07T04:15:44.727Z,19.69
2018-07-07T04:18:17.353Z,19.68
2018-07-07T04:20:46.973Z,19.72
2018-07-07T04:23:16.573Z,19.60
2018-07-07T04:25:46.146Z,19.68
2018-07-07T04:28:16.068Z,19.69
2018-07-07T04:30:46.190Z,19.77
2018-07-07T04:33:16.084Z,19.85
2018-07-07T04:35:45.604Z,19.76
2018-07-07T04:38:15.147Z,19.78
2018-07-07T04:40:44.971Z,19.74
2018-07-07T04:43:14.787Z,19.78
2018-07-07T04:45:44.550Z,19.83
2018-07-07T04:48:14.678Z,19.85
2018-07-07T04:50:44.526Z,19.89
2018-07-07T04:53:14.690Z,19.85
2018-07-07T04:55:44.345Z,19.89
2018-07-07T04:58:14.738Z,19.95
2018-07-07T05:00:44.982Z,19.99
2018-07-07T05:03:14.560Z,20.01
2018-07-07T05:05:44.400Z,19.98
2018-07-07T05:08:13.604Z,20.08
2018-07-07T05:10:42.912Z,20.06
2018-07-07T05:13:12.996Z,20.02
2018-07-07T05:15:42.411Z,20.02
2018-07-07T05:18:12.044Z,20.01
2018-07-07T05:20:42.035Z,20.03
2018-07-07T05:23:12.080Z,20.02
2018-07-07T05:25:42.081Z,20.14
2018-07-07T05:28:11.677Z,20.19
2018-07-07T05:30:41.491Z,20.21
2018-07-07T05:33:11.135Z,20.20
2018-07-07T05:35:40.818Z,20.33
2018-07-07T05:38:11.264Z,20.29
2018-07-07T05:40:45.316Z,20.17
2018-07-07T05:43:14.885Z,20.08
2018-07-07T05:45:44.747Z,20.17
2018-07-07T05:48:14.574Z,20.24
2018-07-07T05:50:44.571Z,20.21
2018-07-07T05:53:14.010Z,20.29
2018-07-07T05:55:43.451Z,20.37
2018-07-07T05:58:13.044Z,20.41
2018-07-07T06:00:43.180Z,20.31
2018-07-07T06:03:12.889Z,20.30
2018-07-07T06:05:42.502Z,20.33
2018-07-07T06:08:12.651Z,20.42
2018-07-07T06:10:41.968Z,20.47
2018-07-07T06:13:11.624Z,20.52
2018-07-07T06:15:41.895Z,20.45
2018-07-07T06:18:11.406Z,20.47
2018-07-07T06:20:41.002Z,20.43
2018-07-07T06:23:10.927Z,20.55
2018-07-07T06:25:40.638Z,20.58
2018-07-07T06:28:10.377Z,20.54
2018-07-07T06:30:39.795Z,20.54
2018-07-07T06:33:09.877Z,20.67
2018-07-07T06:35:40.513Z,20.73
2018-07-07T06:38:10.557Z,20.69
2018-07-07T06:40:40.265Z,20.64
2018-07-07T06:43:09.602Z,20.76
2018-07-07T06:45:40.156Z,20.71
2018-07-07T06:48:10.635Z,20.86
2018-07-07T06:50:40.457Z,20.73
2018-07-07T06:53:09.857Z,20.77
2018-07-07T06:55:39.561Z,20.87
2018-07-07T06:58:12.816Z,21.08
2018-07-07T07:00:42.986Z,21.08
2018-07-07T07:03:12.253Z,21.13
2018-07-07T07:05:41.559Z,21.08
2018-07-07T07:08:11.256Z,20.90
2018-07-07T07:10:41.009Z,21.06
2018-07-07T07:13:11.064Z,21.16
2018-07-07T07:15:40.770Z,21.20
2018-07-07T07:18:10.737Z,21.26
2018-07-07T07:20:40.436Z,21.10
2018-07-07T07:23:10.118Z,21.06
2018-07-07T07:25:39.718Z,21.14
2018-07-07T07:28:09.628Z,21.29
2018-07-07T07:30:39.359Z,21.36
2018-07-07T07:33:09.596Z,21.22
2018-07-07T07:35:39.062Z,21.28
2018-07-07T07:38:09.080Z,21.27
2018-07-07T07:40:38.698Z,21.45
2018-07-07T07:43:08.166Z,21.57
2018-07-07T07:45:37.866Z,21.62
2018-07-07T07:48:07.406Z,21.55
2018-07-07T07:50:37.303Z,21.44
2018-07-07T07:53:07.576Z,21.59
2018-07-07T07:55:38.631Z,21.68
2018-07-07T07:58:08.132Z,21.72
2018-07-07T08:00:37.696Z,21.77
2018-07-07T08:03:07.701Z,21.61
2018-07-07T08:05:37.243Z,21.66
2018-07-07T08:08:07.146Z,21.67
2018-07-07T08:10:36.772Z,21.82
2018-07-07T08:13:06.502Z,21.80
2018-07-07T08:15:40.521Z,21.94
2018-07-07T08:18:10.189Z,21.97
2018-07-07T08:20:40.127Z,22.06
2018-07-07T08:23:09.682Z,21.97
2018-07-07T08:25:39.645Z,22.00
2018-07-07T08:28:09.047Z,22.03
2018-07-07T08:30:39.183Z,22.08
2018-07-07T08:33:08.947Z,22.04
2018-07-07T08:35:38.743Z,21.99
2018-07-07T08:38:13.392Z,22.10
2018-07-07T08:40:43.125Z,22.15
2018-07-07T08:43:15.595Z,22.16
2018-07-07T08:45:46.025Z,22.20
2018-07-07T08:48:16.679Z,22.27
2018-07-07T08:50:47.171Z,22.15
2018-07-07T08:53:17.151Z,22.18
2018-07-07T08:55:46.879Z,22.09
2018-07-07T08:58:16.911Z,22.11
2018-07-07T09:00:46.646Z,22.14
2018-07-07T09:03:17.694Z,22.20
2018-07-07T09:05:47.587Z,22.24
2018-07-07T09:08:17.721Z,22.28
2018-07-07T09:10:47.942Z,22.39
2018-07-07T09:13:18.380Z,22.45
2018-07-07T09:15:48.594Z,22.48
2018-07-07T09:18:22.805Z,22.48
2018-07-07T09:20:52.569Z,22.54
2018-07-07T09:23:23.082Z,22.61
2018-07-07T09:25:53.685Z,22.64
2018-07-07T09:28:23.136Z,22.58
2018-07-07T09:30:53.943Z,22.64
2018-07-07T09:33:24.503Z,22.67
2018-07-07T09:35:54.258Z,22.73
2018-07-07T09:38:23.681Z,22.67
2018-07-07T09:40:53.942Z,22.64
2018-07-07T09:43:24.800Z,22.72
2018-07-07T09:45:54.413Z,22.80
2018-07-07T09:48:24.419Z,22.76
2018-07-07T09:50:54.838Z,22.84
2018-07-07T09:53:24.592Z,22.97
2018-07-07T09:55:54.687Z,23.06
2018-07-07T09:58:24.483Z,22.96
2018-07-07T10:00:54.927Z,22.85
2018-07-07T10:03:26.001Z,22.93
2018-07-07T10:05:55.491Z,22.98
2018-07-07T10:08:25.363Z,22.99
2018-07-07T10:10:57.178Z,23.10
2018-07-07T10:13:30.723Z,23.21
2018-07-07T10:16:01.045Z,23.27
2018-07-07T10:18:31.115Z,23.15
2018-07-07T10:21:01.561Z,23.06
2018-07-07T10:23:31.142Z,23.20
2018-07-07T10:26:00.985Z,23.39
2018-07-07T10:28:30.916Z,23.55
2018-07-07T10:31:00.676Z,23.57
2018-07-07T10:33:30.051Z,23.64
2018-07-07T10:36:00.392Z,23.64
2018-07-07T10:38:30.933Z,23.69
2018-07-07T10:41:01.759Z,23.80
2018-07-07T10:43:31.300Z,23.78
2018-07-07T10:46:01.737Z,23.73
2018-07-07T10:48:32.161Z,23.72
2018-07-07T10:51:02.533Z,23.78
2018-07-07T10:53:32.533Z,23.83
2018-07-07T10:56:02.661Z,23.92
2018-07-07T10:58:32.422Z,23.79
2018-07-07T11:01:02.530Z,23.82
2018-07-07T11:03:32.569Z,23.91
2018-07-07T11:06:03.150Z,23.99
2018-07-07T11:08:32.695Z,23.87
2018-07-07T11:11:02.260Z,24.10
2018-07-07T11:13:31.501Z,24.20
2018-07-07T11:16:00.780Z,24.23
2018-07-07T11:18:30.387Z,24.33
2018-07-07T11:21:04.911Z,24.33
2018-07-07T11:23:34.824Z,24.34
2018-07-07T11:26:04.929Z,24.40
2018-07-07T11:28:35.645Z,24.43
2018-07-07T11:31:05.882Z,24.52
2018-07-07T11:33:36.442Z,24.62
2018-07-07T11:36:06.970Z,24.66
2018-07-07T11:38:37.480Z,24.81
2018-07-07T11:41:07.950Z,24.76
2018-07-07T11:43:38.745Z,24.80
2018-07-07T11:46:08.868Z,24.76
2018-07-07T11:48:39.314Z,24.82
2018-07-07T11:51:10.779Z,24.97
2018-07-07T11:53:40.740Z,24.96
2018-07-07T11:56:10.197Z,25.03
2018-07-07T11:58:39.571Z,24.99
2018-07-07T12:01:09.563Z,24.92
2018-07-07T12:03:39.307Z,24.99
2018-07-07T12:06:09.103Z,24.81
2018-07-07T12:08:38.712Z,25.02
2018-07-07T12:11:08.263Z,25.33
2018-07-07T12:13:37.743Z,25.21
2018-07-07T12:16:07.649Z,25.41
2018-07-07T12:18:36.887Z,25.34
2018-07-07T12:21:06.352Z,25.44
2018-07-07T12:23:36.240Z,25.41
2018-07-07T12:26:08.701Z,25.44
2018-07-07T12:28:38.406Z,25.60
2018-07-07T12:31:08.017Z,25.57
2018-07-07T12:33:38.071Z,25.48
2018-07-07T12:36:07.870Z,25.45
2018-07-07T12:38:37.455Z,25.48
2018-07-07T12:41:07.097Z,25.64
2018-07-07T12:43:36.602Z,25.65
2018-07-07T12:46:06.320Z,25.53
2018-07-07T12:48:36.385Z,25.64
2018-07-07T12:51:06.165Z,25.65
2018-07-07T12:53:36.089Z,25.89
2018-07-07T12:56:06.929Z,25.87
2018-07-07T12:58:36.263Z,26.01
2018-07-07T13:01:06.118Z,26.28
2018-07-07T13:03:35.618Z,26.12
2018-07-07T13:06:05.868Z,26.11
2018-07-07T13:08:35.944Z,26.14
2018-07-07T13:11:05.519Z,26.00
2018-07-07T13:13:35.057Z,26.01
2018-07-07T13:16:04.548Z,26.27
2018-07-07T13:18:34.565Z,26.36
2018-07-07T13:21:04.536Z,26.22
2018-07-07T13:23:33.816Z,26.29
2018-07-07T13:26:03.587Z,26.21
2018-07-07T13:28:33.414Z,26.01
2018-07-07T13:31:03.353Z,25.98
2018-07-07T13:33:32.933Z,26.26
2018-07-07T13:36:02.717Z,26.16
2018-07-07T13:38:36.855Z,26.32
2018-07-07T13:41:09.374Z,26.32
2018-07-07T13:43:40.172Z,26.39
2018-07-07T13:46:10.520Z,26.59
2018-07-07T13:48:39.899Z,26.60
2018-07-07T13:51:09.885Z,26.66
2018-07-07T13:53:39.262Z,26.59
2018-07-07T13:56:09.461Z,26.62
2018-07-07T13:58:39.406Z,26.42
2018-07-07T14:01:08.978Z,26.26
2018-07-07T14:03:41.220Z,26.25
2018-07-07T14:06:11.399Z,26.34
2018-07-07T14:08:41.523Z,26.30
2018-07-07T14:11:11.405Z,26.35
2018-07-07T14:13:40.903Z,26.36
2018-07-07T14:16:10.622Z,26.46
2018-07-07T14:18:40.040Z,26.48
2018-07-07T14:21:13.504Z,26.54
2018-07-07T14:23:43.318Z,26.46
2018-07-07T14:26:13.149Z,26.35
2018-07-07T14:28:43.078Z,26.36
2018-07-07T14:31:12.537Z,26.37
2018-07-07T14:33:42.567Z,26.27
2018-07-07T14:36:11.973Z,26.22
2018-07-07T14:38:43.149Z,26.33
2018-07-07T14:41:14.976Z,26.31
2018-07-07T14:43:52.781Z,26.25
2018-07-07T14:46:22.853Z,26.33
2018-07-07T14:48:52.536Z,26.63
2018-07-07T14:51:22.792Z,26.77
2018-07-07T14:53:52.472Z,26.70
2018-07-07T14:56:23.120Z,26.71
2018-07-07T14:58:53.996Z,26.61
2018-07-07T15:01:24.715Z,26.58
2018-07-07T15:03:54.217Z,26.64
2018-07-07T15:06:23.513Z,26.55
2018-07-07T15:08:53.101Z,26.65
2018-07-07T15:11:26.061Z,26.67
2018-07-07T15:13:55.910Z,26.75
2018-07-07T15:16:25.688Z,26.73
2018-07-07T15:18:55.170Z,26.71
2018-07-07T15:21:24.991Z,26.68
2018-07-07T15:23:54.577Z,26.82
2018-07-07T15:26:24.419Z,26.91
2018-07-07T15:28:54.229Z,26.93
2018-07-07T15:31:23.831Z,26.70
2018-07-07T15:33:56.732Z,26.54
2018-07-07T15:36:26.711Z,26.59
2018-07-07T15:38:56.016Z,26.55
2018-07-07T15:41:28.879Z,26.55
2018-07-07T15:43:59.033Z,26.57
2018-07-07T15:46:28.778Z,26.57
2018-07-07T15:48:58.754Z,26.73
2018-07-07T15:51:28.328Z,26.75
2018-07-07T15:53:57.988Z,26.72
2018-07-07T15:56:27.409Z,26.67
2018-07-07T15:58:56.911Z,26.61
2018-07-07T16:01:27.467Z,26.57
2018-07-07T16:03:57.994Z,26.55
2018-07-07T16:06:27.606Z,26.46
2018-07-07T16:08:57.113Z,26.41
2018-07-07T16:11:27.223Z,26.42
2018-07-07T16:13:56.790Z,26.30
2018-07-07T16:16:26.303Z,26.25
2018-07-07T16:18:59.787Z,26.18
2018-07-07T16:21:29.836Z,26.22
2018-07-07T16:24:00.012Z,26.37
2018-07-07T16:26:30.621Z,26.28
2018-07-07T16:29:00.403Z,26.25
2018-07-07T16:31:30.068Z,26.19
2018-07-07T16:34:00.104Z,26.06
2018-07-07T16:36:30.013Z,26.01
2018-07-07T16:38:59.615Z,25.99
2018-07-07T16:41:29.274Z,26.04
2018-07-07T16:44:01.648Z,26.09
2018-07-07T16:46:32.010Z,26.12
2018-07-07T16:49:05.682Z,26.07
2018-07-07T16:51:35.300Z,26.07
2018-07-07T16:54:05.150Z,26.03
2018-07-07T16:56:35.326Z,25.92
2018-07-07T16:59:04.702Z,26.00
2018-07-07T17:01:34.498Z,25.98
2018-07-07T17:04:03.945Z,25.94
2018-07-07T17:06:33.538Z,25.94
2018-07-07T17:09:03.266Z,25.77
2018-07-07T17:11:32.979Z,25.63
2018-07-07T17:14:02.977Z,25.63
2018-07-07T17:16:32.470Z,25.64
2018-07-07T17:19:02.263Z,25.74
2018-07-07T17:21:32.328Z,25.67
2018-07-07T17:24:02.046Z,25.52
2018-07-07T17:26:31.847Z,25.50
2018-07-07T17:29:01.506Z,25.46
2018-07-07T17:31:31.090Z,25.41
2018-07-07T17:34:00.845Z,25.36
2018-07-07T17:36:30.276Z,25.30
2018-07-07T17:39:01.130Z,25.27
2018-07-07T17:41:31.096Z,25.35
2018-07-07T17:44:00.605Z,25.32
2018-07-07T17:46:30.510Z,25.31
2018-07-07T17:49:00.648Z,25.22
2018-07-07T17:51:30.994Z,25.19
2018-07-07T17:54:01.678Z,25.07
2018-07-07T17:56:31.685Z,25.01
2018-07-07T17:59:02.691Z,25.01
2018-07-07T18:01:34.680Z,25.05
2018-07-07T18:04:04.541Z,25.06
2018-07-07T18:06:34.146Z,25.04
2018-07-07T18:09:03.903Z,24.98
2018-07-07T18:11:33.487Z,24.98
2018-07-07T18:14:03.164Z,24.88
2018-07-07T18:16:33.589Z,24.84
2018-07-07T18:19:03.557Z,24.77
2018-07-07T18:21:33.206Z,24.65
2018-07-07T18:24:03.065Z,24.57
2018-07-07T18:26:32.804Z,24.49
2018-07-07T18:29:02.530Z,24.46
2018-07-07T18:31:32.790Z,24.41
2018-07-07T18:34:03.397Z,24.37
2018-07-07T18:36:32.937Z,24.42
2018-07-07T18:39:02.645Z,24.44
2018-07-07T18:41:32.316Z,24.42
2018-07-07T18:44:02.289Z,24.29
2018-07-07T18:46:31.623Z,24.25
2018-07-07T18:49:01.657Z,24.23
2018-07-07T18:51:31.293Z,24.20
2018-07-07T18:54:00.958Z,24.09
2018-07-07T18:56:30.464Z,24.08
2018-07-07T18:59:00.616Z,23.96
2018-07-07T19:01:30.941Z,23.90
2018-07-07T19:04:03.511Z,23.80
2018-07-07T19:06:33.346Z,23.81
2018-07-07T19:09:06.013Z,23.80
2018-07-07T19:11:35.501Z,23.82
2018-07-07T19:14:05.175Z,23.78
2018-07-07T19:16:34.820Z,23.70
2018-07-07T19:19:04.711Z,23.74
2018-07-07T19:21:39.142Z,23.73
2018-07-07T19:24:13.936Z,23.62
2018-07-07T19:26:49.024Z,23.63
2018-07-07T19:29:18.982Z,23.58
2018-07-07T19:31:53.665Z,23.50
2018-07-07T19:34:28.092Z,23.46
2018-07-07T19:37:03.306Z,23.47
2018-07-07T19:39:32.751Z,23.56
2018-07-07T19:42:03.252Z,23.51
2018-07-07T19:44:32.915Z,23.47
2018-07-07T19:47:03.034Z,23.34
2018-07-07T19:49:35.243Z,23.34
2018-07-07T19:52:05.143Z,23.30
2018-07-07T19:54:34.654Z,23.21
2018-07-07T19:57:04.387Z,23.18
2018-07-07T19:59:34.242Z,23.18
2018-07-07T20:02:04.096Z,23.23
2018-07-07T20:04:33.756Z,23.08
2018-07-07T20:07:03.848Z,23.08
2018-07-07T20:09:33.292Z,23.06
2018-07-07T20:12:02.923Z,23.05
2018-07-07T20:14:32.478Z,22.98
2018-07-07T20:17:09.744Z,22.92
2018-07-07T20:20:58.236Z,22.93
2018-07-07T20:23:29.162Z,22.86
2018-07-07T20:26:05.731Z,22.85
2018-07-07T20:28:40.150Z,22.86
2018-07-07T20:31:09.506Z,22.86
2018-07-07T20:33:39.248Z,22.82
2018-07-07T20:36:09.259Z,22.83
2018-07-07T20:38:38.814Z,22.81
2018-07-07T20:41:08.758Z,22.77
2018-07-07T20:46:07.016Z,22.73
2018-07-07T20:48:36.362Z,22.59
2018-07-07T20:51:05.704Z,22.61
2018-07-07T20:53:35.326Z,22.65
2018-07-07T20:56:04.672Z,22.68
2018-07-07T20:58:34.147Z,22.62
2018-07-07T21:01:03.886Z,22.58
2018-07-07T21:03:33.641Z,22.51
2018-07-07T21:06:06.743Z,22.47
2018-07-07T21:08:36.788Z,22.54
2018-07-07T21:11:06.695Z,22.47
2018-07-07T21:13:36.434Z,22.45
2018-07-07T21:16:06.309Z,22.43
2018-07-07T21:18:36.343Z,22.37
2018-07-07T21:21:06.949Z,22.31
2018-07-07T21:23:36.494Z,22.25
2018-07-07T21:26:06.201Z,22.13
2018-07-07T21:28:35.964Z,22.12
2018-07-07T21:31:05.711Z,22.18
2018-07-07T21:33:35.515Z,22.18
2018-07-07T21:36:06.308Z,22.10
2018-07-07T21:38:36.090Z,22.11
2018-07-07T21:41:06.207Z,22.09
2018-07-07T21:43:36.797Z,22.02
2018-07-07T21:46:06.293Z,22.07
2018-07-07T21:48:35.857Z,21.99
2018-07-07T21:51:05.446Z,21.96
2018-07-07T21:53:34.946Z,21.93
2018-07-07T21:56:04.316Z,21.78
2018-07-07T21:58:35.221Z,21.72
2018-07-07T22:01:22.447Z,21.63
2018-07-07T22:03:57.247Z,21.52
2018-07-07T22:06:31.962Z,21.52
2018-07-07T22:09:02.356Z,21.45
2018-07-07T22:11:32.036Z,21.44
2018-07-07T22:14:01.613Z,21.37
2018-07-07T22:16:31.448Z,21.36
2018-07-07T22:19:00.677Z,21.33
2018-07-07T22:21:46.334Z,21.24
2018-07-07T22:24:16.446Z,21.28
2018-07-07T22:26:46.911Z,21.19
2018-07-07T22:29:17.138Z,21.20
2018-07-07T22:31:46.914Z,21.05
2018-07-07T22:34:16.342Z,21.05
2018-07-07T22:36:45.611Z,21.07
2018-07-07T22:39:15.688Z,21.00
2018-07-07T22:41:52.630Z,20.99
2018-07-07T22:44:22.442Z,21.03
2018-07-07T22:46:53.077Z,21.03
2018-07-07T22:49:23.282Z,21.00
2018-07-07T22:51:53.852Z,20.96
2018-07-07T22:54:23.459Z,20.88
2018-07-07T22:56:53.235Z,20.86
2018-07-07T22:59:24.097Z,20.80
2018-07-07T23:01:53.832Z,20.76
2018-07-07T23:04:24.250Z,20.72
2018-07-07T23:06:54.185Z,20.72
2018-07-07T23:09:23.881Z,20.68
2018-07-07T23:11:54.316Z,20.70
2018-07-07T23:14:24.479Z,20.52
2018-07-07T23:16:57.868Z,20.62
2018-07-07T23:19:28.291Z,20.52
2018-07-07T23:21:58.432Z,20.38
2018-07-07T23:24:27.726Z,20.33
2018-07-07T23:26:57.273Z,20.35
2018-07-07T23:29:27.504Z,20.26
2018-07-07T23:31:57.435Z,20.10
2018-07-07T23:34:26.820Z,20.15
2018-07-07T23:36:57.034Z,19.99
2018-07-07T23:39:27.260Z,20.04
2018-07-07T23:41:57.439Z,20.03
2018-07-07T23:44:27.793Z,19.60
2018-07-07T23:46:57.448Z,19.72
2018-07-07T23:49:27.068Z,19.89
2018-07-07T23:51:56.693Z,19.85
2018-07-07T23:54:26.615Z,19.91
2018-07-07T23:56:56.771Z,19.80
2018-07-07T23:59:26.540Z,19.83
